Saturday, November 18, 2017, 1:11 AM EST
Back to Local

KBED, Bedford Hanscom Field

Location: Concord, MA, United States Lat: 42.467
Local Time: 1:11 AM EST ( 6:11 GMT) Lon: -71.3
Time Zone: US/Eastern Elev: 134 ft

Show me the last for .
Show Decoded

2017-11-18 00:56 METAR KBED 180556Z AUTO 00000KT 10SM CLR M05/M08 A2999 RMK AO2 SLP170 T10501078
                 10017 21061 53002 =
2017-11-17 23:56 METAR KBED 180456Z AUTO 00000KT 10SM CLR M06/M08 A2998 RMK AO2 SLP169 T10561078
                 400611061 =
2017-11-17 22:56 METAR KBED 180356Z AUTO 00000KT 10SM CLR M04/M07 A2998 RMK AO2 SLP169 T10441072
                 =
2017-11-17 21:56 METAR KBED 180256Z 00000KT 10SM CLR M04/M08 A2998 RMK AO2 SLP168 T10391078 50004
                 =
2017-11-17 20:56 METAR KBED 180156Z 00000KT 10SM CLR M02/M08 A2998 RMK AO2 SLP169 T10221078 =
2017-11-17 19:56 METAR KBED 180056Z 26005KT 10SM CLR M01/M11 A2999 RMK AO2 SLP171 T10061106 =
2017-11-17 18:56 METAR KBED 172356Z 26005KT 10SM CLR 01/M10 A2997 RMK AO2 SLP164 T00111100 10061
                 20011 51015 =
2017-11-17 17:56 METAR KBED 172256Z 28007KT 10SM CLR 02/M09 A2996 RMK AO2 SLP160 T00221094 =
2017-11-17 16:56 METAR KBED 172156Z 28008KT 10SM CLR 03/M08 A2995 RMK AO2 SLP157 T00281078 =
2017-11-17 15:56 METAR KBED 172056Z 30013KT 10SM CLR 04/M09 A2993 RMK AO2 SLP149 T00391094 53017
                 =
2017-11-17 14:56 METAR KBED 171956Z 31011G23KT 10SM FEW040 05/M09 A2990 RMK AO2 PK WND 29030/1923
                 SLP140 T00501089 =
2017-11-17 13:56 METAR KBED 171856Z 31016G22KT 10SM FEW040 06/M07 A2989 RMK AO2 PK WND 30028/1812
                 SLP135 T00561067 =
2017-11-17 12:56 METAR KBED 171756Z 31015G22KT 10SM SCT040 06/M06 A2988 RMK AO2 PK WND 29028/1658
                 SLP131 T00561056 10056 20028 58006 =
2017-11-17 11:56 METAR KBED 171656Z 30019KT 10SM SCT040 05/M06 A2988 RMK AO2 PK WND 29030/1602
                 SLP134 T00501056 =
2017-11-17 10:56 METAR KBED 171556Z 30021G29KT 10SM SCT040 04/M05 A2989 RMK AO2 PK WND 30031/1527
                 SLP138 T00441050 =
2017-11-17 09:56 METAR KBED 171456Z 29021G30KT 10SM BKN036 04/M04 A2989 RMK AO2 PK WND 30030/1451
                 SLP137 T00391044 51022 =
2017-11-17 08:56 METAR KBED 171356Z 31014G24KT 10SM BKN035 03/M04 A2988 RMK AO2 PK WND 32029/1312
                 SLP133 T00331039 =
2017-11-17 07:56 METAR KBED 171256Z 31016G26KT 10SM BKN035 03/M04 A2986 RMK AO2 PK WND 30029/1221
                 SLP125 T00281039 =
2017-11-17 06:56 METAR KBED 171156Z 31011G25KT 10SM BKN037 03/M03 A2983 RMK AO2 SLP114 70042
                 T00281033 10039 20028 51035 =
2017-11-17 05:56 METAR KBED 171056Z AUTO 30012KT 10SM OVC037 03/M02 A2979 RMK AO2 SLP102
                 T00331022 =
2017-11-17 04:56 METAR KBED 170956Z AUTO 31007G20KT 10SM OVC037 04/M02 A2977 RMK AO2 SLP094
                 T00391017 =
2017-11-17 03:56 METAR KBED 170856Z AUTO 28010KT 10SM CLR 04/M01 A2972 RMK AO2 SLP080 T00391006
                 51013 =
2017-11-17 02:56 METAR KBED 170756Z AUTO 28008KT 10SM CLR 03/00 A2972 RMK AO2 SLP077 T00330000 =
2017-11-17 01:56 METAR KBED 170656Z AUTO 26006KT 10SM CLR 04/00 A2971 RMK AO2 SLP074 T00390000 =

Support USWX by starting your Amazon purchase here.